Terminal Aerodrome Forecast
Issued by NWS Chicago, IL

Home | Current Version | Previous Version | Text Only | Print | Product List | Glossary On
Versions: 1 2 3 4 5 6 7 8 9 10 11 12 13 14 15 16 17 18 19 20 21 22 23 24 25 26 27 28 29 30
000
FTUS43 KLOT 230500
TAFRFD
TAF
KRFD 230525Z 2306/2406 08003KT P6SM SKC
     FM231600 12007KT P6SM FEW090 SCT200
     FM232300 09007KT P6SM VCSH BKN090 OVC250
     FM240200 10006KT P6SM VCSH BKN060 OVC090 PROB30 2404/2406 P6SM
      -SHRA=

USA.gov is the U.S. government's official web portal to all federal, state and local government web resources and services.